Latest Coastal Weather Observations for Middle Percy Island

IDQ60701

Issued at 11:35 pm EST Thursday 31 July 2014 (issued every 10 minutes, with the page automatically refreshed every 10 minutes)

About coastal observations | Map of coastal stations | Coastal observations for QLD | Marine services | Other Formats
Station Details ID: 200001 Name: MIDDLE PERCY ISLAND Lat: -21.66 Lon: 150.27 Height: 208.7 m
Data from the previous 72 hours. | See also: Recent months at Middle Percy Island
Date/Time
EST
Temp

°C
Wind Pressure Rain
since 9am
mm
Weather Cloud Vis
km
Sea
Height
m
Swell
Dir
 
Speed
knots
Gust
knots
hPa Trend Height
m
Period
s
Dir
31/11:30pm 18.3 NE 6 8 1019.0 - 0.2 - - - - - - -
31/11:00pm 18.4 NE 6 9 1018.6 - 0.2 - - - - - - -
31/10:30pm 18.2 NE 6 8 1019.2 - 0.2 - - - - - - -
31/10:00pm 18.4 NE 6 8 1018.8 - 0.2 - - - - - - -
31/09:30pm 18.3 ENE 4 6 1019.5 - 0.2 - - - - - - -
31/09:00pm 18.1 E 5 6 1019.0 - 0.2 - - - - - - -
31/08:30pm 18.5 E 4 5 1019.4 - 0.2 - - - - - - -
31/08:00pm 18.7 E 4 6 1018.9 - 0.2 - - - - - - -
31/07:30pm 18.6 E 5 6 1019.1 - 0.2 - - - - - - -
31/07:00pm 18.1 E 5 6 1018.2 - 0.2 - - - - - - -
31/06:30pm 17.8 ESE 4 5 1018.4 - 0.2 - - - - - - -
31/06:00pm 18.1 ESE 4 5 1017.8 - 0.2 - - - - - - -
31/05:30pm 18.4 ESE 5 7 1018.3 - 0.2 - - - - - - -
31/05:00pm 18.8 ESE 5 6 1017.9 - 0.2 - - - - - - -
31/04:30pm 19.2 ESE 3 5 1018.1 - 0.2 - - - - - - -
31/04:00pm 19.5 S 4 6 1017.3 - 0.2 - - - - - - -
31/03:30pm 19.4 WNW 5 7 1018.1 - 0.2 - - - - - - -
31/03:00pm 19.7 W 2 4 1017.9 - 0.2 - - - - - - -
31/02:30pm 19.7 NNW 4 6 1018.5 - 0.2 - - - - - - -
31/02:00pm 19.4 N 5 7 1018.2 - 0.2 - - - - - - -
31/01:30pm 18.8 N 5 7 1019.1 - 0.2 - - - - - - -
31/01:00pm 18.6 N 9 13 1018.9 - 0.2 - - - - - - -
31/12:30pm 20.9 SE 3 6 1019.7 - 0.2 - - - - - - -
31/12:00pm 21.4 ESE 4 6 1019.7 - 0.2 - - - - - - -
31/11:30am 20.6 S 2 4 1020.8 - 0.2 - - - - - - -
31/11:00am 19.1 N 2 5 1020.8 - 0.2 - - - - - - -
31/10:30am 19.2 ENE 5 9 1021.6 - 0.0 - - - - - - -
31/10:00am 20.4 E 5 8 1020.9 - 0.0 - - - - - - -
31/09:30am 20.0 SE 6 8 1021.6 - 0.0 - - - - - - -
31/09:00am 19.8 SE 11 15 1020.8 - 0.0 - - - - - - -
31/08:30am 19.5 ESE 11 16 1021.3 - 0.0 - - - - - - -
31/08:00am 19.2 ESE 10 13 1020.5 - 0.0 - - - - - - -
31/07:30am 19.3 ESE 10 14 1020.9 - 0.0 - - - - - - -
31/07:00am 19.0 ESE 9 13 1020.1 - 0.0 - - - - - - -
31/06:30am 18.7 ESE 10 14 1020.4 - 0.0 - - - - - - -
31/06:00am 18.7 ESE 9 13 1019.7 - 0.0 - - - - - - -
31/05:30am 18.8 ESE 9 13 1020.1 - 0.0 - - - - - - -
31/05:00am 18.7 SE 8 11 1019.4 - 0.0 - - - - - - -
31/04:30am 18.8 ESE 7 10 1019.9 - 0.0 - - - - - - -
31/04:00am 18.6 ESE 6 9 1019.4 - 0.0 - - - - - - -
31/03:30am 18.5 E 5 8 1020.0 - 0.0 - - - - - - -
31/03:00am 18.5 E 5 8 1019.6 - 0.0 - - - - - - -
31/02:30am 18.6 E 6 10 1020.1 - 0.0 - - - - - - -
31/02:00am 18.5 E 5 9 1019.8 - 0.0 - - - - - - -
31/01:30am 18.9 E 5 10 1020.6 - 0.0 - - - - - - -
31/01:00am 19.0 ENE 8 13 1020.1 - 0.0 - - - - - - -
31/12:30am 19.1 NE 9 14 1020.7 - 0.0 - - - - - - -
31/12:00am 19.1 NE 9 14 1020.2 - 0.0 - - - - - - -
 
Date/Time
EST
Temp

°C
Wind Pressure Rain
since 9am
mm
Weather Cloud Vis
km
Sea
Height
m
Swell
Dir
 
Speed
knots
Gust
knots
hPa Trend Height
m
Period
s
Dir
30/11:30pm 18.9 ENE 9 12 1021.0 - 0.0 - - - - - - -
30/11:00pm 18.6 NE 9 13 1020.6 - 0.0 - - - - - - -
30/10:30pm 18.9 NE 12 16 1021.1 - 0.0 - - - - - - -
30/10:00pm 18.7 NE 10 16 1020.5 - 0.0 - - - - - - -
30/09:30pm 18.9 NE 10 14 1021.3 - 0.0 - - - - - - -
30/09:00pm 18.8 NE 7 10 1020.8 - 0.0 - - - - - - -
30/08:30pm 18.9 ENE 5 8 1021.5 - 0.0 - - - - - - -
30/08:00pm 18.9 ENE 5 7 1020.7 - 0.0 - - - - - - -
30/07:30pm 18.9 ENE 5 7 1021.3 - 0.0 - - - - - - -
30/07:00pm 18.8 E 6 8 1020.6 - 0.0 - - - - - - -
30/06:30pm 18.9 E 5 9 1021.1 - 0.0 - - - - - - -
30/06:00pm 18.8 E 5 9 1020.3 - 0.0 - - - - - - -
30/05:30pm 18.8 E 4 6 1020.8 - 0.0 - - - - - - -
30/05:00pm 19.1 E 4 8 1020.1 - 0.0 - - - - - - -
30/04:30pm 19.4 E 3 6 1020.6 - 0.0 - - - - - - -
30/04:00pm 19.7 ESE 7 10 1019.9 - 0.0 - - - - - - -
30/03:30pm 19.6 ESE 7 10 1020.6 - 0.0 - - - - - - -
30/03:00pm 19.9 ESE 8 11 1019.8 - 0.0 - - - - - - -
30/02:30pm 20.1 SE 8 11 1020.6 - 0.0 - - - - - - -
30/02:00pm 20.0 SSE 9 12 1020.3 - 0.0 - - - - - - -
30/01:30pm 20.2 SE 11 15 1021.2 - 0.0 - - - - - - -
30/01:00pm 20.9 SSE 10 15 1020.9 - 0.0 - - - - - - -
30/12:30pm 21.5 SE 8 12 1022.0 - 0.0 - - - - - - -
30/12:00pm 21.1 SSE 8 11 1021.6 - 0.0 - - - - - - -
30/11:30am 19.9 SSE 8 10 1023.1 - 0.0 - - - - - - -
30/11:00am 19.9 S 8 11 1022.9 - 0.0 - - - - - - -
30/10:30am 19.7 S 10 14 1023.6 - 0.0 - - - - - - -
30/10:00am 19.7 S 9 12 1023.3 - 0.0 - - - - - - -
30/09:30am 19.9 S 6 9 1023.9 - 0.0 - - - - - - -
30/09:00am 19.5 SE 4 6 1023.5 - 0.0 - - - - - - -
30/08:30am 19.2 CALM 0 0 1023.9 - 0.0 - - - - - - -
30/08:00am 18.4 CALM 0 0 1023.1 - 0.0 - - - - - - -
30/07:30am 18.6 CALM 0 0 1023.3 - 0.0 - - - - - - -
30/07:00am 18.5 NNE 2 2 1022.4 - 0.0 - - - - - - -
30/06:30am 18.3 NNE 2 3 1022.6 - 0.0 - - - - - - -
30/06:00am 18.1 NE 3 4 1021.6 - 0.0 - - - - - - -
30/05:30am 17.7 ENE 4 5 1022.0 - 0.0 - - - - - - -
30/05:00am 18.0 ENE 4 6 1021.2 - 0.0 - - - - - - -
30/04:30am 18.2 NE 5 7 1021.6 - 0.0 - - - - - - -
30/04:00am 18.0 NE 4 6 1020.9 - 0.0 - - - - - - -
30/03:30am 17.8 ENE 5 6 1021.7 - 0.0 - - - - - - -
30/03:00am 18.0 ENE 4 5 1021.2 - 0.0 - - - - - - -
30/02:30am 18.2 NE 5 7 1021.8 - 0.0 - - - - - - -
30/02:00am 18.0 NE 4 8 1021.3 - 0.0 - - - - - - -
30/01:30am 17.8 ENE 4 8 1022.1 - 0.0 - - - - - - -
30/01:00am 17.9 ENE 5 8 1021.6 - 0.0 - - - - - - -
30/12:30am 17.9 ENE 5 8 1022.4 - 0.0 - - - - - - -
30/12:00am 17.9 E 5 8 1022.0 - 0.0 - - - - - - -
 
Date/Time
EST
Temp

°C
Wind Pressure Rain
since 9am
mm
Weather Cloud Vis
km
Sea
Height
m
Swell
Dir
 
Speed
knots
Gust
knots
hPa Trend Height
m
Period
s
Dir
29/11:30pm 18.2 E 6 9 1022.6 - 0.0 - - - - - - -
29/11:00pm 18.1 E 5 9 1022.3 - 0.0 - - - - - - -
29/10:30pm 18.0 E 5 8 1023.0 - 0.0 - - - - - - -
29/10:00pm 17.8 E 5 8 1022.5 - 0.0 - - - - - - -
29/09:30pm 18.0 E 5 7 1022.9 - 0.0 - - - - - - -
29/09:00pm 18.0 E 5 9 1022.1 - 0.0 - - - - - - -
29/08:30pm 18.1 E 5 8 1022.5 - 0.0 - - - - - - -
29/08:00pm 18.2 E 6 9 1021.7 - 0.0 - - - - - - -
29/07:30pm 18.0 E 6 8 1022.2 - 0.0 - - - - - - -
29/07:00pm 18.0 E 6 8 1021.4 - 0.0 - - - - - - -
29/06:30pm 17.9 E 6 8 1021.8 - 0.0 - - - - - - -
29/06:00pm 18.0 E 6 8 1021.0 - 0.0 - - - - - - -
29/05:30pm 18.1 E 5 8 1021.5 - 0.0 - - - - - - -
29/05:00pm 18.9 E 4 6 1020.6 - 0.0 - - - - - - -
29/04:30pm 19.5 ESE 6 8 1021.0 - 0.0 - - - - - - -
29/04:00pm 19.9 ESE 6 9 1020.2 - 0.0 - - - - - - -
29/03:30pm 20.4 SE 6 10 1020.9 - 0.0 - - - - - - -
29/03:00pm 20.8 ESE 7 9 1020.2 - 0.0 - - - - - - -
29/02:30pm 20.6 SE 8 12 1021.1 - 0.0 - - - - - - -
29/02:00pm 21.1 ESE 7 10 1020.8 - 0.0 - - - - - - -
29/01:30pm 21.4 SE 8 11 1021.5 - 0.0 - - - - - - -
29/01:00pm 21.3 ESE 7 11 1021.3 - 0.0 - - - - - - -
29/12:30pm 21.0 SE 8 11 1022.3 - 0.0 - - - - - - -
29/12:00pm 20.9 ESE 9 12 1022.3 - 0.0 - - - - - - -
29/11:30am 21.4 ESE 8 11 1023.1 - 0.0 - - - - - - -
29/11:00am 21.0 ESE 7 10 1023.0 - 0.0 - - - - - - -
29/10:30am 20.9 ESE 8 11 1023.7 - 0.0 - - - - - - -
29/10:00am 20.8 ESE 7 11 1023.5 - 0.0 - - - - - - -
29/09:30am 20.3 SE 7 10 1024.1 - 0.0 - - - - - - -
29/09:00am 19.9 ESE 7 10 1023.8 - 0.2 - - - - - - -
29/08:30am 20.0 ESE 6 8 1024.0 - 0.2 - - - - - - -
29/08:00am 19.4 ESE 4 6 1023.5 - 0.2 - - - - - - -
29/07:30am 18.4 ESE 4 5 1023.9 - 0.2 - - - - - - -
29/07:00am 17.3 ESE 4 5 1023.2 - 0.2 - - - - - - -
29/06:30am 16.9 ESE 4 6 1023.3 - 0.2 - - - - - - -
29/06:00am 17.0 E 4 5 1022.4 - 0.2 - - - - - - -
29/05:30am 17.3 E 4 6 1022.6 - 0.2 - - - - - - -
29/05:00am 17.1 E 4 5 1021.9 - 0.2 - - - - - - -
29/04:30am 17.2 E 4 5 1022.1 - 0.2 - - - - - - -
29/04:00am 17.3 ENE 4 6 1021.3 - 0.2 - - - - - - -
29/03:30am 17.8 NE 4 6 1021.8 - 0.2 - - - - - - -
29/03:00am 17.3 ENE 4 5 1021.2 - 0.2 - - - - - - -
29/02:30am 17.3 ENE 4 6 1021.8 - 0.2 - - - - - - -
29/02:00am 17.8 ENE 5 7 1021.1 - 0.2 - - - - - - -
29/01:30am 17.7 ENE 5 8 1021.8 - 0.2 - - - - - - -
29/01:00am 17.9 ENE 6 9 1021.3 - 0.2 - - - - - - -
29/12:30am 18.2 NE 6 10 1022.1 - 0.2 - - - - - - -
29/12:00am 18.0 NE 6 9 1021.6 - 0.2 - - - - - - -

Other Formats:

Comma delimited format used in spreadsheet applications
http://www.bom.gov.au/fwo/IDQ60701/IDQ60701.94372.axf

JavaScript Object Notation format (JSON) in row-major order
http://www.bom.gov.au/fwo/IDQ60701/IDQ60701.94372.json